首页
METAR-TAF:

METAR-TAF

机场 :

Bellaire, 密歇根州, 美国

纬度: 44-59-18N, 经度: 085-11-54W, 海拔: 190米

当前天气观测

该预报发布于15分钟前的11:35 UTC
风速6节,风向西北
温度 -6°C
湿度 68%
气压 1012 hPa
能見度: 6.4公里
散云层高于1200英尺
多云层高于2300英尺
阴天层高于5000英尺
小雪

METAR: KACB 271135Z AUTO 32006KT 4SM -SN SCT012 BKN023 OVC050 M06/M11 A2987 RMK AO2 T10631108

时间: 06:50 (11:50 UTC)


TAF: 丢失

超过4000个机场的气象观测和天气预报(METAR&TAF报告)。

可查询的气象台以黄色和红色小点在地图上表示。

将鼠标移到小点上方,可查看气象台名称。

然后点击查看天气观测和预报。

如需切换地图:点击带黑十字的绿色按钮放大地图;点击带横线的绿色按钮缩小地图;或者点击绿色箭头查看邻近地区的地图。


METAR-TAF: